sensor_id;sensor_type;location;lat;lon;timestamp;temperature;humidity
68924;DHT22;55961;52.156;20.942;2024-02-15T00:00:12;5.30;68.30
68924;DHT22;55961;52.156;20.942;2024-02-15T00:02:58;5.30;68.30
68924;DHT22;55961;52.156;20.942;2024-02-15T00:05:24;5.30;68.30
68924;DHT22;55961;52.156;20.942;2024-02-15T00:07:50;5.30;68.30
68924;DHT22;55961;52.156;20.942;2024-02-15T00:10:16;5.30;68.10
68924;DHT22;55961;52.156;20.942;2024-02-15T00:12:43;5.30;68.20
68924;DHT22;55961;52.156;20.942;2024-02-15T00:15:15;5.30;68.30
68924;DHT22;55961;52.156;20.942;2024-02-15T00:17:42;5.30;68.40
68924;DHT22;55961;52.156;20.942;2024-02-15T00:20:19;5.30;68.50
68924;DHT22;55961;52.156;20.942;2024-02-15T00:22:46;5.30;68.50
68924;DHT22;55961;52.156;20.942;2024-02-15T00:25:13;5.30;68.50
68924;DHT22;55961;52.156;20.942;2024-02-15T00:27:39;5.30;68.60
68924;DHT22;55961;52.156;20.942;2024-02-15T00:30:06;5.30;68.60
68924;DHT22;55961;52.156;20.942;2024-02-15T00:32:33;5.30;68.80
68924;DHT22;55961;52.156;20.942;2024-02-15T00:34:59;5.30;68.70
68924;DHT22;55961;52.156;20.942;2024-02-15T00:37:25;5.30;68.60
68924;DHT22;55961;52.156;20.942;2024-02-15T00:39:52;5.30;68.70
68924;DHT22;55961;52.156;20.942;2024-02-15T00:42:17;5.30;68.80
68924;DHT22;55961;52.156;20.942;2024-02-15T00:44:44;5.30;68.60
68924;DHT22;55961;52.156;20.942;2024-02-15T00:47:10;5.30;68.50
68924;DHT22;55961;52.156;20.942;2024-02-15T00:49:38;5.30;68.50
68924;DHT22;55961;52.156;20.942;2024-02-15T00:52:04;5.30;68.60
68924;DHT22;55961;52.156;20.942;2024-02-15T00:54:30;5.30;68.70
68924;DHT22;55961;52.156;20.942;2024-02-15T00:56:56;5.30;68.70
68924;DHT22;55961;52.156;20.942;2024-02-15T00:59:22;5.30;68.70
68924;DHT22;55961;52.156;20.942;2024-02-15T01:01:48;5.20;68.80
68924;DHT22;55961;52.156;20.942;2024-02-15T01:04:14;5.20;68.80
68924;DHT22;55961;52.156;20.942;2024-02-15T01:06:40;5.20;68.80
68924;DHT22;55961;52.156;20.942;2024-02-15T01:09:07;5.20;68.90
68924;DHT22;55961;52.156;20.942;2024-02-15T01:11:35;5.20;69.10
68924;DHT22;55961;52.156;20.942;2024-02-15T01:14:02;5.20;69.10
68924;DHT22;55961;52.156;20.942;2024-02-15T01:16:28;5.20;69.10
68924;DHT22;55961;52.156;20.942;2024-02-15T01:18:54;5.20;69.20
68924;DHT22;55961;52.156;20.942;2024-02-15T01:21:20;5.20;69.30
68924;DHT22;55961;52.156;20.942;2024-02-15T01:23:48;5.20;69.20
68924;DHT22;55961;52.156;20.942;2024-02-15T01:26:14;5.20;69.30
68924;DHT22;55961;52.156;20.942;2024-02-15T01:28:40;5.20;69.40
68924;DHT22;55961;52.156;20.942;2024-02-15T01:31:10;5.20;69.50
68924;DHT22;55961;52.156;20.942;2024-02-15T01:33:37;5.20;69.50
68924;DHT22;55961;52.156;20.942;2024-02-15T01:36:04;5.20;69.50
68924;DHT22;55961;52.156;20.942;2024-02-15T01:38:30;5.20;69.50
68924;DHT22;55961;52.156;20.942;2024-02-15T01:40:56;5.20;69.30
68924;DHT22;55961;52.156;20.942;2024-02-15T01:43:22;5.20;69.50
68924;DHT22;55961;52.156;20.942;2024-02-15T01:45:48;5.20;69.40
68924;DHT22;55961;52.156;20.942;2024-02-15T01:48:15;5.20;69.40
68924;DHT22;55961;52.156;20.942;2024-02-15T01:50:42;5.20;69.60
68924;DHT22;55961;52.156;20.942;2024-02-15T01:53:09;5.20;69.60
68924;DHT22;55961;52.156;20.942;2024-02-15T01:55:37;5.20;69.60
68924;DHT22;55961;52.156;20.942;2024-02-15T01:58:03;5.20;69.60
68924;DHT22;55961;52.156;20.942;2024-02-15T02:00:30;5.20;69.70
68924;DHT22;55961;52.156;20.942;2024-02-15T02:02:57;5.20;69.80
68924;DHT22;55961;52.156;20.942;2024-02-15T02:05:27;5.20;69.90
68924;DHT22;55961;52.156;20.942;2024-02-15T02:07:57;5.20;70.00
68924;DHT22;55961;52.156;20.942;2024-02-15T02:10:27;5.20;70.00
68924;DHT22;55961;52.156;20.942;2024-02-15T02:12:53;5.20;70.10
68924;DHT22;55961;52.156;20.942;2024-02-15T02:15:19;5.20;70.10
68924;DHT22;55961;52.156;20.942;2024-02-15T02:17:51;5.20;70.20
68924;DHT22;55961;52.156;20.942;2024-02-15T02:20:17;5.10;70.30
68924;DHT22;55961;52.156;20.942;2024-02-15T02:22:46;5.10;70.20
68924;DHT22;55961;52.156;20.942;2024-02-15T02:25:13;5.10;70.30
68924;DHT22;55961;52.156;20.942;2024-02-15T02:27:39;5.10;70.20
68924;DHT22;55961;52.156;20.942;2024-02-15T02:30:12;5.10;70.30
68924;DHT22;55961;52.156;20.942;2024-02-15T02:32:44;5.20;70.40
68924;DHT22;55961;52.156;20.942;2024-02-15T02:35:10;5.20;70.30
68924;DHT22;55961;52.156;20.942;2024-02-15T02:37:42;5.10;70.50
68924;DHT22;55961;52.156;20.942;2024-02-15T02:40:11;5.10;70.40
68924;DHT22;55961;52.156;20.942;2024-02-15T02:42:56;5.10;70.50
68924;DHT22;55961;52.156;20.942;2024-02-15T02:45:24;5.10;70.50
68924;DHT22;55961;52.156;20.942;2024-02-15T02:47:52;5.10;70.50
68924;DHT22;55961;52.156;20.942;2024-02-15T02:50:18;5.10;70.60
68924;DHT22;55961;52.156;20.942;2024-02-15T02:52:44;5.10;70.70
68924;DHT22;55961;52.156;20.942;2024-02-15T02:55:11;5.10;70.90
68924;DHT22;55961;52.156;20.942;2024-02-15T02:57:38;5.10;71.00
68924;DHT22;55961;52.156;20.942;2024-02-15T03:00:09;5.10;71.00
68924;DHT22;55961;52.156;20.942;2024-02-15T03:02:39;5.10;70.90
68924;DHT22;55961;52.156;20.942;2024-02-15T03:05:05;5.10;71.00
68924;DHT22;55961;52.156;20.942;2024-02-15T03:07:35;5.10;70.80
68924;DHT22;55961;52.156;20.942;2024-02-15T03:10:03;5.10;71.00
68924;DHT22;55961;52.156;20.942;2024-02-15T03:12:36;5.10;70.90
68924;DHT22;55961;52.156;20.942;2024-02-15T03:15:03;5.10;70.90
68924;DHT22;55961;52.156;20.942;2024-02-15T03:17:30;5.10;70.80
68924;DHT22;55961;52.156;20.942;2024-02-15T03:19:58;5.10;71.10
68924;DHT22;55961;52.156;20.942;2024-02-15T03:22:25;5.10;71.00
68924;DHT22;55961;52.156;20.942;2024-02-15T03:24:51;5.10;71.00
68924;DHT22;55961;52.156;20.942;2024-02-15T03:27:18;5.10;71.10
68924;DHT22;55961;52.156;20.942;2024-02-15T03:29:47;5.10;71.20
68924;DHT22;55961;52.156;20.942;2024-02-15T03:32:14;5.10;71.20
68924;DHT22;55961;52.156;20.942;2024-02-15T03:34:40;5.10;71.20
68924;DHT22;55961;52.156;20.942;2024-02-15T03:37:08;5.00;71.20
68924;DHT22;55961;52.156;20.942;2024-02-15T03:39:35;5.10;71.30
68924;DHT22;55961;52.156;20.942;2024-02-15T03:42:01;5.10;71.30
68924;DHT22;55961;52.156;20.942;2024-02-15T03:44:27;5.10;71.40
68924;DHT22;55961;52.156;20.942;2024-02-15T03:46:53;5.10;71.60
68924;DHT22;55961;52.156;20.942;2024-02-15T03:49:19;5.10;71.60
68924;DHT22;55961;52.156;20.942;2024-02-15T03:51:46;5.10;71.60
68924;DHT22;55961;52.156;20.942;2024-02-15T03:54:12;5.10;71.60
68924;DHT22;55961;52.156;20.942;2024-02-15T03:56:50;5.10;71.50
68924;DHT22;55961;52.156;20.942;2024-02-15T03:59:20;5.10;71.60
68924;DHT22;55961;52.156;20.942;2024-02-15T04:01:53;5.10;71.50
68924;DHT22;55961;52.156;20.942;2024-02-15T04:04:19;5.10;71.40
68924;DHT22;55961;52.156;20.942;2024-02-15T04:06:48;5.10;71.50
68924;DHT22;55961;52.156;20.942;2024-02-15T04:09:14;5.10;71.50
68924;DHT22;55961;52.156;20.942;2024-02-15T04:11:40;5.10;71.60
68924;DHT22;55961;52.156;20.942;2024-02-15T04:14:05;5.10;71.50
68924;DHT22;55961;52.156;20.942;2024-02-15T04:16:32;5.10;71.60
68924;DHT22;55961;52.156;20.942;2024-02-15T04:18:59;5.10;71.60
68924;DHT22;55961;52.156;20.942;2024-02-15T04:21:25;5.00;71.70
68924;DHT22;55961;52.156;20.942;2024-02-15T04:23:53;5.10;71.70
68924;DHT22;55961;52.156;20.942;2024-02-15T04:26:20;5.00;71.70
68924;DHT22;55961;52.156;20.942;2024-02-15T04:28:46;5.10;71.80
68924;DHT22;55961;52.156;20.942;2024-02-15T04:31:18;5.10;71.70
68924;DHT22;55961;52.156;20.942;2024-02-15T04:33:44;5.00;71.60
68924;DHT22;55961;52.156;20.942;2024-02-15T04:36:10;5.00;71.70
68924;DHT22;55961;52.156;20.942;2024-02-15T04:38:39;5.00;71.80
68924;DHT22;55961;52.156;20.942;2024-02-15T04:41:05;5.00;71.70
68924;DHT22;55961;52.156;20.942;2024-02-15T04:43:34;5.00;71.70
68924;DHT22;55961;52.156;20.942;2024-02-15T04:46:01;5.00;71.50
68924;DHT22;55961;52.156;20.942;2024-02-15T04:48:27;5.10;71.60
68924;DHT22;55961;52.156;20.942;2024-02-15T04:50:55;5.00;71.70
68924;DHT22;55961;52.156;20.942;2024-02-15T04:53:27;5.00;71.50
68924;DHT22;55961;52.156;20.942;2024-02-15T04:55:59;5.00;71.60
68924;DHT22;55961;52.156;20.942;2024-02-15T04:58:28;5.00;71.60
68924;DHT22;55961;52.156;20.942;2024-02-15T05:00:54;5.00;71.70
68924;DHT22;55961;52.156;20.942;2024-02-15T05:03:25;5.00;71.60
68924;DHT22;55961;52.156;20.942;2024-02-15T05:05:51;5.00;71.60
68924;DHT22;55961;52.156;20.942;2024-02-15T05:08:16;5.00;71.70
68924;DHT22;55961;52.156;20.942;2024-02-15T05:10:44;5.00;71.80
68924;DHT22;55961;52.156;20.942;2024-02-15T05:13:11;5.00;71.80
68924;DHT22;55961;52.156;20.942;2024-02-15T05:15:38;5.00;71.80
68924;DHT22;55961;52.156;20.942;2024-02-15T05:18:05;5.00;71.80
68924;DHT22;55961;52.156;20.942;2024-02-15T05:20:34;5.00;71.90
68924;DHT22;55961;52.156;20.942;2024-02-15T05:23:00;5.00;71.90
68924;DHT22;55961;52.156;20.942;2024-02-15T05:25:28;5.00;71.90
68924;DHT22;55961;52.156;20.942;2024-02-15T05:28:01;5.00;72.10
68924;DHT22;55961;52.156;20.942;2024-02-15T05:30:27;5.00;72.10
68924;DHT22;55961;52.156;20.942;2024-02-15T05:32:55;5.00;72.00
68924;DHT22;55961;52.156;20.942;2024-02-15T05:35:22;5.00;72.00
68924;DHT22;55961;52.156;20.942;2024-02-15T05:37:50;5.00;72.10
68924;DHT22;55961;52.156;20.942;2024-02-15T05:40:18;5.00;72.40
68924;DHT22;55961;52.156;20.942;2024-02-15T05:42:45;5.00;72.50
68924;DHT22;55961;52.156;20.942;2024-02-15T05:47:53;5.00;73.20
68924;DHT22;55961;52.156;20.942;2024-02-15T05:50:19;5.00;73.70
68924;DHT22;55961;52.156;20.942;2024-02-15T05:52:49;5.00;73.90
68924;DHT22;55961;52.156;20.942;2024-02-15T05:55:18;5.00;74.30
68924;DHT22;55961;52.156;20.942;2024-02-15T05:57:46;5.00;74.40
68924;DHT22;55961;52.156;20.942;2024-02-15T06:00:13;5.00;74.80
68924;DHT22;55961;52.156;20.942;2024-02-15T06:02:41;5.00;75.10
68924;DHT22;55961;52.156;20.942;2024-02-15T06:05:09;5.00;75.40
68924;DHT22;55961;52.156;20.942;2024-02-15T06:07:36;4.90;76.20
68924;DHT22;55961;52.156;20.942;2024-02-15T06:10:02;5.00;76.90
68924;DHT22;55961;52.156;20.942;2024-02-15T06:12:29;4.90;77.80
68924;DHT22;55961;52.156;20.942;2024-02-15T06:14:55;4.90;78.40
68924;DHT22;55961;52.156;20.942;2024-02-15T06:17:21;4.90;79.50
68924;DHT22;55961;52.156;20.942;2024-02-15T06:19:47;4.90;79.80
68924;DHT22;55961;52.156;20.942;2024-02-15T06:22:13;4.90;80.20
68924;DHT22;55961;52.156;20.942;2024-02-15T06:24:40;4.80;81.60
68924;DHT22;55961;52.156;20.942;2024-02-15T06:27:07;4.90;82.30
68924;DHT22;55961;52.156;20.942;2024-02-15T06:29:33;4.80;83.30
68924;DHT22;55961;52.156;20.942;2024-02-15T06:32:18;4.80;84.10
68924;DHT22;55961;52.156;20.942;2024-02-15T06:35:02;4.70;84.80
68924;DHT22;55961;52.156;20.942;2024-02-15T06:38:07;4.70;85.20
68924;DHT22;55961;52.156;20.942;2024-02-15T06:40:51;4.70;86.50
68924;DHT22;55961;52.156;20.942;2024-02-15T06:43:17;4.70;86.80
68924;DHT22;55961;52.156;20.942;2024-02-15T06:45:43;4.70;87.80
68924;DHT22;55961;52.156;20.942;2024-02-15T06:48:13;4.60;87.90
68924;DHT22;55961;52.156;20.942;2024-02-15T06:50:39;4.70;88.60
68924;DHT22;55961;52.156;20.942;2024-02-15T06:53:05;4.60;89.30
68924;DHT22;55961;52.156;20.942;2024-02-15T06:55:31;4.60;89.90
68924;DHT22;55961;52.156;20.942;2024-02-15T06:57:57;4.60;90.90
68924;DHT22;55961;52.156;20.942;2024-02-15T07:00:23;4.60;92.30
68924;DHT22;55961;52.156;20.942;2024-02-15T07:02:49;4.60;92.50
68924;DHT22;55961;52.156;20.942;2024-02-15T07:05:15;4.50;92.70
68924;DHT22;55961;52.156;20.942;2024-02-15T07:07:43;4.50;93.30
68924;DHT22;55961;52.156;20.942;2024-02-15T07:10:09;4.50;95.10
68924;DHT22;55961;52.156;20.942;2024-02-15T07:12:36;4.50;95.40
68924;DHT22;55961;52.156;20.942;2024-02-15T07:15:04;4.50;96.10
68924;DHT22;55961;52.156;20.942;2024-02-15T07:17:32;4.50;96.20
68924;DHT22;55961;52.156;20.942;2024-02-15T07:19:58;4.40;97.00
68924;DHT22;55961;52.156;20.942;2024-02-15T07:22:24;4.40;97.20
68924;DHT22;55961;52.156;20.942;2024-02-15T07:24:50;4.40;97.40
68924;DHT22;55961;52.156;20.942;2024-02-15T07:27:16;4.40;98.00
68924;DHT22;55961;52.156;20.942;2024-02-15T07:29:44;4.40;97.60
68924;DHT22;55961;52.156;20.942;2024-02-15T07:32:10;4.40;98.10
68924;DHT22;55961;52.156;20.942;2024-02-15T07:34:37;4.40;98.60
68924;DHT22;55961;52.156;20.942;2024-02-15T07:37:03;4.40;98.70
68924;DHT22;55961;52.156;20.942;2024-02-15T07:39:29;4.40;99.10
68924;DHT22;55961;52.156;20.942;2024-02-15T07:41:55;4.40;98.90
68924;DHT22;55961;52.156;20.942;2024-02-15T07:44:24;4.40;99.20
68924;DHT22;55961;52.156;20.942;2024-02-15T07:46:50;4.40;99.50
68924;DHT22;55961;52.156;20.942;2024-02-15T07:49:16;4.40;99.30
68924;DHT22;55961;52.156;20.942;2024-02-15T07:51:43;4.40;99.90
68924;DHT22;55961;52.156;20.942;2024-02-15T07:54:10;4.40;99.80
68924;DHT22;55961;52.156;20.942;2024-02-15T07:56:36;4.40;99.90
68924;DHT22;55961;52.156;20.942;2024-02-15T07:59:02;4.40;99.90
68924;DHT22;55961;52.156;20.942;2024-02-15T08:01:28;4.40;99.90
68924;DHT22;55961;52.156;20.942;2024-02-15T08:03:56;4.50;99.90
68924;DHT22;55961;52.156;20.942;2024-02-15T08:06:23;4.50;99.90
68924;DHT22;55961;52.156;20.942;2024-02-15T08:08:53;4.50;99.90
68924;DHT22;55961;52.156;20.942;2024-02-15T08:11:19;4.50;99.90
68924;DHT22;55961;52.156;20.942;2024-02-15T08:13:50;4.50;99.90
68924;DHT22;55961;52.156;20.942;2024-02-15T08:16:21;4.60;99.90
68924;DHT22;55961;52.156;20.942;2024-02-15T08:18:51;4.60;99.90
68924;DHT22;55961;52.156;20.942;2024-02-15T08:21:27;4.60;99.90
68924;DHT22;55961;52.156;20.942;2024-02-15T08:23:55;4.60;99.90
68924;DHT22;55961;52.156;20.942;2024-02-15T08:26:22;4.60;99.90
68924;DHT22;55961;52.156;20.942;2024-02-15T08:28:48;4.60;99.90
68924;DHT22;55961;52.156;20.942;2024-02-15T08:31:14;4.60;99.90
68924;DHT22;55961;52.156;20.942;2024-02-15T08:33:43;4.70;99.90
68924;DHT22;55961;52.156;20.942;2024-02-15T08:36:10;4.70;99.90
68924;DHT22;55961;52.156;20.942;2024-02-15T08:38:36;4.70;99.90
68924;DHT22;55961;52.156;20.942;2024-02-15T08:41:07;4.70;99.90
68924;DHT22;55961;52.156;20.942;2024-02-15T08:43:34;4.80;99.90
68924;DHT22;55961;52.156;20.942;2024-02-15T08:46:00;4.80;99.90
68924;DHT22;55961;52.156;20.942;2024-02-15T08:48:31;4.80;99.90
68924;DHT22;55961;52.156;20.942;2024-02-15T08:50:59;4.80;99.90
68924;DHT22;55961;52.156;20.942;2024-02-15T08:53:25;4.90;99.90
68924;DHT22;55961;52.156;20.942;2024-02-15T08:55:52;4.90;99.90
68924;DHT22;55961;52.156;20.942;2024-02-15T08:58:19;4.90;99.90
68924;DHT22;55961;52.156;20.942;2024-02-15T09:00:47;4.90;99.90
68924;DHT22;55961;52.156;20.942;2024-02-15T09:03:13;5.00;99.90
68924;DHT22;55961;52.156;20.942;2024-02-15T09:05:40;5.00;99.90
68924;DHT22;55961;52.156;20.942;2024-02-15T09:08:08;5.00;99.90
68924;DHT22;55961;52.156;20.942;2024-02-15T09:10:34;5.10;99.90
68924;DHT22;55961;52.156;20.942;2024-02-15T09:13:02;5.10;99.90
68924;DHT22;55961;52.156;20.942;2024-02-15T09:15:28;5.10;99.90
68924;DHT22;55961;52.156;20.942;2024-02-15T09:17:56;5.20;99.90
68924;DHT22;55961;52.156;20.942;2024-02-15T09:20:23;5.20;99.90
68924;DHT22;55961;52.156;20.942;2024-02-15T09:22:54;5.20;99.90
68924;DHT22;55961;52.156;20.942;2024-02-15T09:25:22;5.30;99.90
68924;DHT22;55961;52.156;20.942;2024-02-15T09:27:51;5.30;99.90
68924;DHT22;55961;52.156;20.942;2024-02-15T09:30:19;5.30;99.90
68924;DHT22;55961;52.156;20.942;2024-02-15T09:32:45;5.30;99.90
68924;DHT22;55961;52.156;20.942;2024-02-15T09:35:12;5.40;99.90
68924;DHT22;55961;52.156;20.942;2024-02-15T09:37:43;5.40;99.90
68924;DHT22;55961;52.156;20.942;2024-02-15T09:40:11;5.40;99.90
68924;DHT22;55961;52.156;20.942;2024-02-15T09:42:38;5.40;99.90
68924;DHT22;55961;52.156;20.942;2024-02-15T09:45:07;5.40;99.90
68924;DHT22;55961;52.156;20.942;2024-02-15T09:47:37;5.50;99.90
68924;DHT22;55961;52.156;20.942;2024-02-15T09:50:07;5.50;99.90
68924;DHT22;55961;52.156;20.942;2024-02-15T09:52:34;5.50;99.90
68924;DHT22;55961;52.156;20.942;2024-02-15T09:55:05;5.50;99.90
68924;DHT22;55961;52.156;20.942;2024-02-15T09:57:31;5.60;99.90
68924;DHT22;55961;52.156;20.942;2024-02-15T09:59:59;5.60;99.90
68924;DHT22;55961;52.156;20.942;2024-02-15T10:02:36;5.60;99.90
68924;DHT22;55961;52.156;20.942;2024-02-15T10:05:04;5.60;99.90
68924;DHT22;55961;52.156;20.942;2024-02-15T10:07:30;5.70;99.90
68924;DHT22;55961;52.156;20.942;2024-02-15T10:09:56;5.70;99.90
68924;DHT22;55961;52.156;20.942;2024-02-15T10:12:22;5.70;99.90
68924;DHT22;55961;52.156;20.942;2024-02-15T10:15:02;5.70;99.90
68924;DHT22;55961;52.156;20.942;2024-02-15T10:17:31;5.80;99.90
68924;DHT22;55961;52.156;20.942;2024-02-15T10:20:05;5.80;99.90
68924;DHT22;55961;52.156;20.942;2024-02-15T10:22:31;5.80;99.90
68924;DHT22;55961;52.156;20.942;2024-02-15T10:25:14;5.80;99.90
68924;DHT22;55961;52.156;20.942;2024-02-15T10:27:42;5.80;99.90
68924;DHT22;55961;52.156;20.942;2024-02-15T10:30:17;5.80;99.90
68924;DHT22;55961;52.156;20.942;2024-02-15T10:32:43;5.90;99.90
68924;DHT22;55961;52.156;20.942;2024-02-15T10:35:10;5.90;99.90
68924;DHT22;55961;52.156;20.942;2024-02-15T10:37:41;5.90;99.90
68924;DHT22;55961;52.156;20.942;2024-02-15T10:40:08;5.90;99.90
68924;DHT22;55961;52.156;20.942;2024-02-15T10:42:36;5.90;99.90
68924;DHT22;55961;52.156;20.942;2024-02-15T10:45:03;5.90;99.90
68924;DHT22;55961;52.156;20.942;2024-02-15T10:47:31;5.90;99.90
68924;DHT22;55961;52.156;20.942;2024-02-15T10:49:57;5.90;99.90
68924;DHT22;55961;52.156;20.942;2024-02-15T10:52:26;5.90;99.90
68924;DHT22;55961;52.156;20.942;2024-02-15T10:55:03;6.00;99.90
68924;DHT22;55961;52.156;20.942;2024-02-15T10:57:31;6.00;99.90
68924;DHT22;55961;52.156;20.942;2024-02-15T10:59:59;6.10;99.90
68924;DHT22;55961;52.156;20.942;2024-02-15T11:02:42;6.10;99.90
68924;DHT22;55961;52.156;20.942;2024-02-15T11:05:09;6.20;99.90
68924;DHT22;55961;52.156;20.942;2024-02-15T11:07:36;6.20;99.90
68924;DHT22;55961;52.156;20.942;2024-02-15T11:10:04;6.20;99.90
68924;DHT22;55961;52.156;20.942;2024-02-15T11:12:34;6.30;99.90
68924;DHT22;55961;52.156;20.942;2024-02-15T11:15:01;6.30;99.90
68924;DHT22;55961;52.156;20.942;2024-02-15T11:20:03;6.40;99.90
68924;DHT22;55961;52.156;20.942;2024-02-15T11:22:35;6.40;99.90
68924;DHT22;55961;52.156;20.942;2024-02-15T11:25:03;6.50;99.90
68924;DHT22;55961;52.156;20.942;2024-02-15T11:27:38;6.50;99.90
68924;DHT22;55961;52.156;20.942;2024-02-15T11:30:07;6.50;99.90
68924;DHT22;55961;52.156;20.942;2024-02-15T11:32:38;6.50;99.90
68924;DHT22;55961;52.156;20.942;2024-02-15T11:35:14;6.60;99.90
68924;DHT22;55961;52.156;20.942;2024-02-15T11:43:08;6.80;99.90
68924;DHT22;55961;52.156;20.942;2024-02-15T11:45:34;6.80;99.90
68924;DHT22;55961;52.156;20.942;2024-02-15T11:48:08;6.90;99.90
68924;DHT22;55961;52.156;20.942;2024-02-15T11:50:38;7.00;99.90
68924;DHT22;55961;52.156;20.942;2024-02-15T11:53:06;7.00;99.90
68924;DHT22;55961;52.156;20.942;2024-02-15T11:55:36;7.10;99.90
68924;DHT22;55961;52.156;20.942;2024-02-15T11:58:03;7.20;99.90
68924;DHT22;55961;52.156;20.942;2024-02-15T12:00:36;7.20;99.90
68924;DHT22;55961;52.156;20.942;2024-02-15T12:03:22;7.30;99.90
68924;DHT22;55961;52.156;20.942;2024-02-15T12:06:08;7.40;99.90
68924;DHT22;55961;52.156;20.942;2024-02-15T12:08:54;7.50;99.90
68924;DHT22;55961;52.156;20.942;2024-02-15T12:11:39;7.50;99.90
68924;DHT22;55961;52.156;20.942;2024-02-15T12:14:24;7.60;99.90
68924;DHT22;55961;52.156;20.942;2024-02-15T12:17:11;7.60;99.90
68924;DHT22;55961;52.156;20.942;2024-02-15T12:19:57;7.70;99.90
68924;DHT22;55961;52.156;20.942;2024-02-15T12:22:28;7.80;99.90
68924;DHT22;55961;52.156;20.942;2024-02-15T12:24:56;7.80;99.90
68924;DHT22;55961;52.156;20.942;2024-02-15T12:27:23;7.80;99.90
68924;DHT22;55961;52.156;20.942;2024-02-15T12:30:01;7.80;99.90
68924;DHT22;55961;52.156;20.942;2024-02-15T12:32:31;7.90;99.90
68924;DHT22;55961;52.156;20.942;2024-02-15T12:35:10;8.00;99.90
68924;DHT22;55961;52.156;20.942;2024-02-15T12:37:42;8.00;99.90
68924;DHT22;55961;52.156;20.942;2024-02-15T12:40:17;8.00;99.90
68924;DHT22;55961;52.156;20.942;2024-02-15T12:42:44;8.00;99.90
68924;DHT22;55961;52.156;20.942;2024-02-15T12:45:20;8.00;99.90
68924;DHT22;55961;52.156;20.942;2024-02-15T12:47:56;8.10;99.90
68924;DHT22;55961;52.156;20.942;2024-02-15T12:50:32;8.10;99.90
68924;DHT22;55961;52.156;20.942;2024-02-15T12:52:59;8.10;99.90
68924;DHT22;55961;52.156;20.942;2024-02-15T12:55:32;8.10;99.90
68924;DHT22;55961;52.156;20.942;2024-02-15T12:58:01;8.10;99.90
68924;DHT22;55961;52.156;20.942;2024-02-15T13:00:30;8.20;99.90
68924;DHT22;55961;52.156;20.942;2024-02-15T13:03:05;8.20;99.90
68924;DHT22;55961;52.156;20.942;2024-02-15T13:05:34;8.20;99.90
68924;DHT22;55961;52.156;20.942;2024-02-15T13:08:02;8.30;99.90
68924;DHT22;55961;52.156;20.942;2024-02-15T13:10:29;8.30;99.90
68924;DHT22;55961;52.156;20.942;2024-02-15T13:12:56;8.30;99.90
68924;DHT22;55961;52.156;20.942;2024-02-15T13:15:22;8.40;99.90
68924;DHT22;55961;52.156;20.942;2024-02-15T13:17:56;8.40;99.90
68924;DHT22;55961;52.156;20.942;2024-02-15T13:20:23;8.50;99.90
68924;DHT22;55961;52.156;20.942;2024-02-15T13:22:59;8.50;99.90
68924;DHT22;55961;52.156;20.942;2024-02-15T13:25:34;8.50;99.90
68924;DHT22;55961;52.156;20.942;2024-02-15T13:28:03;8.60;99.90
68924;DHT22;55961;52.156;20.942;2024-02-15T13:30:30;8.60;99.90
68924;DHT22;55961;52.156;20.942;2024-02-15T13:32:56;8.60;99.90
68924;DHT22;55961;52.156;20.942;2024-02-15T13:35:22;8.70;99.90
68924;DHT22;55961;52.156;20.942;2024-02-15T13:37:50;8.70;99.90
68924;DHT22;55961;52.156;20.942;2024-02-15T13:40:26;8.80;99.90
68924;DHT22;55961;52.156;20.942;2024-02-15T13:42:55;8.80;99.90
68924;DHT22;55961;52.156;20.942;2024-02-15T13:45:28;8.90;99.90
68924;DHT22;55961;52.156;20.942;2024-02-15T13:47:56;8.90;99.90
68924;DHT22;55961;52.156;20.942;2024-02-15T13:50:22;9.00;99.80
68924;DHT22;55961;52.156;20.942;2024-02-15T13:52:49;9.10;99.00
68924;DHT22;55961;52.156;20.942;2024-02-15T13:55:19;9.10;98.70
68924;DHT22;55961;52.156;20.942;2024-02-15T13:57:47;9.10;98.40
68924;DHT22;55961;52.156;20.942;2024-02-15T14:00:14;9.20;98.20
68924;DHT22;55961;52.156;20.942;2024-02-15T14:02:57;9.20;98.40
68924;DHT22;55961;52.156;20.942;2024-02-15T14:05:26;9.20;97.80
68924;DHT22;55961;52.156;20.942;2024-02-15T14:08:12;9.20;97.50
68924;DHT22;55961;52.156;20.942;2024-02-15T14:10:38;9.30;97.60
68924;DHT22;55961;52.156;20.942;2024-02-15T14:13:05;9.30;97.10
68924;DHT22;55961;52.156;20.942;2024-02-15T14:15:34;9.30;96.30
68924;DHT22;55961;52.156;20.942;2024-02-15T14:18:07;9.40;95.90
68924;DHT22;55961;52.156;20.942;2024-02-15T14:20:36;9.40;95.70
68924;DHT22;55961;52.156;20.942;2024-02-15T14:23:03;9.40;95.60
68924;DHT22;55961;52.156;20.942;2024-02-15T14:25:31;9.40;95.40
68924;DHT22;55961;52.156;20.942;2024-02-15T14:28:01;9.40;94.60
68924;DHT22;55961;52.156;20.942;2024-02-15T14:30:28;9.50;94.30
68924;DHT22;55961;52.156;20.942;2024-02-15T14:33:13;9.50;93.50
68924;DHT22;55961;52.156;20.942;2024-02-15T14:35:41;9.40;92.70
68924;DHT22;55961;52.156;20.942;2024-02-15T14:38:10;9.50;92.10
68924;DHT22;55961;52.156;20.942;2024-02-15T14:40:46;9.40;91.30
68924;DHT22;55961;52.156;20.942;2024-02-15T14:43:16;9.40;91.00
68924;DHT22;55961;52.156;20.942;2024-02-15T14:45:44;9.40;90.90
68924;DHT22;55961;52.156;20.942;2024-02-15T14:48:10;9.40;90.60
68924;DHT22;55961;52.156;20.942;2024-02-15T14:50:42;9.40;90.70
68924;DHT22;55961;52.156;20.942;2024-02-15T14:53:08;9.40;90.70
68924;DHT22;55961;52.156;20.942;2024-02-15T14:55:34;9.40;89.90
68924;DHT22;55961;52.156;20.942;2024-02-15T14:58:00;9.30;89.10
68924;DHT22;55961;52.156;20.942;2024-02-15T15:00:26;9.30;89.10
68924;DHT22;55961;52.156;20.942;2024-02-15T15:02:53;9.20;89.20
68924;DHT22;55961;52.156;20.942;2024-02-15T15:05:23;9.30;89.30
68924;DHT22;55961;52.156;20.942;2024-02-15T15:08:07;9.20;89.00
68924;DHT22;55961;52.156;20.942;2024-02-15T15:10:54;9.20;89.10
68924;DHT22;55961;52.156;20.942;2024-02-15T15:13:39;9.20;88.90
68924;DHT22;55961;52.156;20.942;2024-02-15T15:16:06;9.10;88.60
68924;DHT22;55961;52.156;20.942;2024-02-15T15:18:43;9.10;88.30
68924;DHT22;55961;52.156;20.942;2024-02-15T15:21:11;9.10;88.30
68924;DHT22;55961;52.156;20.942;2024-02-15T15:23:38;9.10;88.30
68924;DHT22;55961;52.156;20.942;2024-02-15T15:26:05;9.00;87.80
68924;DHT22;55961;52.156;20.942;2024-02-15T15:28:40;9.00;87.30
68924;DHT22;55961;52.156;20.942;2024-02-15T15:31:06;9.00;87.20
68924;DHT22;55961;52.156;20.942;2024-02-15T15:33:33;8.90;87.30
68924;DHT22;55961;52.156;20.942;2024-02-15T15:36:00;9.00;87.40
68924;DHT22;55961;52.156;20.942;2024-02-15T15:38:26;8.90;87.00
68924;DHT22;55961;52.156;20.942;2024-02-15T15:40:52;8.90;86.80
68924;DHT22;55961;52.156;20.942;2024-02-15T15:43:19;8.80;86.80
68924;DHT22;55961;52.156;20.942;2024-02-15T15:45:46;8.80;86.80
68924;DHT22;55961;52.156;20.942;2024-02-15T15:48:13;8.80;86.70
68924;DHT22;55961;52.156;20.942;2024-02-15T15:50:42;8.70;86.70